London, Arkansas
Current Conditions -  °F | °C
As of 9:53 PM on Sunday 23 Nov 2014 (Local Time) from KRUE Reporting Station
Clear Clear  
Wind Chill: 60°   Ceiling: Unl
Heat Index: 60°   Visibility: 10mi
Dew Point: 50°   Wind: 5mph
Humidity: 69%   Direction: 250°WSW
Pressure: 29.38"   Gusts: NA
Location:  35.33°N, 93.25°W
Report Text: KRUE 240353Z AUTO 25004KT 10SM CLR 16/10 A2938 RMK AO2 SLP945 T01560100
Loading
Personal Weather Stations






























Interactive Weather Map New forecast layout! Learn more

10-Day Weather Forecast

Advertisements
Track Severe Weather on mobile